createdAt,value
2017-10-16T00:00:34.048Z,0.00
2017-10-16T00:01:34.081Z,0.00
2017-10-16T00:02:34.115Z,0.00
2017-10-16T00:03:34.146Z,0.00
2017-10-16T00:04:34.179Z,0.00
2017-10-16T00:05:34.214Z,0.00
2017-10-16T00:06:34.248Z,0.00
2017-10-16T00:07:34.279Z,0.00
2017-10-16T00:08:34.312Z,0.00
2017-10-16T00:09:34.346Z,0.00
2017-10-16T00:10:34.377Z,0.00
2017-10-16T00:11:34.411Z,0.00
2017-10-16T00:12:34.444Z,0.00
2017-10-16T00:13:34.476Z,0.00
2017-10-16T00:14:34.509Z,0.00
2017-10-16T00:15:34.543Z,0.00
2017-10-16T00:16:34.577Z,0.00
2017-10-16T00:17:34.608Z,0.00
2017-10-16T00:18:34.642Z,0.00
2017-10-16T00:19:34.676Z,0.00
2017-10-16T00:20:34.708Z,0.00
2017-10-16T00:21:34.740Z,0.00
2017-10-16T00:22:34.774Z,0.00
2017-10-16T00:23:34.806Z,0.00
2017-10-16T00:24:34.839Z,0.00
2017-10-16T00:25:34.875Z,0.00
2017-10-16T00:26:34.904Z,0.00
2017-10-16T00:27:34.937Z,0.00
2017-10-16T00:28:34.970Z,0.00
2017-10-16T00:29:35.002Z,0.00
2017-10-16T00:30:35.036Z,0.00
2017-10-16T00:31:35.070Z,0.00
2017-10-16T00:32:35.101Z,0.00
2017-10-16T00:33:35.135Z,0.00
2017-10-16T00:34:35.167Z,0.00
2017-10-16T00:35:35.199Z,0.00
2017-10-16T00:36:35.232Z,0.00
2017-10-16T00:37:35.265Z,0.00
2017-10-16T00:38:35.298Z,0.00
2017-10-16T00:39:35.331Z,0.00
2017-10-16T00:40:35.363Z,0.00
2017-10-16T00:41:35.395Z,0.00
2017-10-16T00:42:35.428Z,0.00
2017-10-16T00:43:35.462Z,0.00
2017-10-16T00:44:35.495Z,0.00
2017-10-16T00:45:35.524Z,0.00
2017-10-16T00:46:35.560Z,0.00
2017-10-16T00:47:35.591Z,0.00
2017-10-16T00:48:35.623Z,0.00
2017-10-16T00:49:35.657Z,0.00
2017-10-16T00:50:35.689Z,0.00
2017-10-16T00:51:35.722Z,0.00
2017-10-16T00:52:35.755Z,0.00
2017-10-16T00:53:35.787Z,0.00
2017-10-16T00:54:35.820Z,0.00
2017-10-16T00:55:35.852Z,0.00
2017-10-16T00:56:35.885Z,0.00
2017-10-16T00:57:35.916Z,0.00
2017-10-16T00:58:35.950Z,0.00
2017-10-16T00:59:35.981Z,0.00
2017-10-16T01:00:36.016Z,0.00
2017-10-16T01:01:36.047Z,0.00
2017-10-16T01:02:36.080Z,0.00
2017-10-16T01:03:36.113Z,0.00
2017-10-16T01:04:36.146Z,0.00
2017-10-16T01:05:36.178Z,0.00
2017-10-16T01:06:36.210Z,0.00
2017-10-16T01:07:36.244Z,0.00
2017-10-16T01:08:36.277Z,0.00
2017-10-16T01:09:36.307Z,0.00
2017-10-16T01:10:36.340Z,0.00
2017-10-16T01:11:36.373Z,0.00
2017-10-16T01:12:36.406Z,0.00
2017-10-16T01:13:36.437Z,0.00
2017-10-16T01:14:36.470Z,0.00
2017-10-16T01:15:36.504Z,0.00
2017-10-16T01:16:36.543Z,0.00
2017-10-16T01:17:36.568Z,0.00
2017-10-16T01:18:36.600Z,0.00
2017-10-16T01:19:36.633Z,0.00
2017-10-16T01:20:36.666Z,0.00
2017-10-16T01:21:36.697Z,0.00
2017-10-16T01:22:36.731Z,0.00
2017-10-16T01:23:36.764Z,0.00
2017-10-16T01:24:36.795Z,0.00
2017-10-16T01:25:36.829Z,0.00
2017-10-16T01:26:36.861Z,0.00
2017-10-16T01:27:36.892Z,0.00
2017-10-16T01:28:36.925Z,0.00
2017-10-16T01:29:36.956Z,0.00
2017-10-16T01:30:36.991Z,0.00
2017-10-16T01:31:37.022Z,0.00
2017-10-16T01:32:37.060Z,0.00
2017-10-16T01:33:37.087Z,0.00
2017-10-16T01:34:37.119Z,0.00
2017-10-16T01:35:37.152Z,0.00
2017-10-16T01:36:37.186Z,0.00
2017-10-16T01:37:37.217Z,0.00
2017-10-16T01:38:37.249Z,0.00
2017-10-16T01:39:37.287Z,0.00
2017-10-16T01:40:37.315Z,0.00
2017-10-16T01:41:37.347Z,0.00
2017-10-16T01:42:37.380Z,0.00
2017-10-16T01:43:37.411Z,0.00
2017-10-16T01:44:37.444Z,0.00
2017-10-16T01:45:37.476Z,0.00
2017-10-16T01:46:37.509Z,0.00
2017-10-16T01:47:37.541Z,0.00
2017-10-16T01:48:37.574Z,0.00
2017-10-16T01:49:37.607Z,0.00
2017-10-16T01:50:37.639Z,0.00
2017-10-16T01:51:37.671Z,0.00
2017-10-16T01:52:37.705Z,0.00
2017-10-16T01:53:37.735Z,0.00
2017-10-16T01:54:37.768Z,0.00
2017-10-16T01:55:37.801Z,0.00
2017-10-16T01:56:37.835Z,0.00
2017-10-16T01:57:37.866Z,0.00
2017-10-16T01:58:37.904Z,0.00
2017-10-16T01:59:37.932Z,0.00
2017-10-16T02:00:37.964Z,0.00
2017-10-16T02:01:37.995Z,0.00
2017-10-16T02:02:38.027Z,0.00
2017-10-16T02:03:38.060Z,0.00
2017-10-16T02:04:38.094Z,0.00
2017-10-16T02:05:38.124Z,0.00
2017-10-16T02:06:38.157Z,0.00
2017-10-16T02:07:38.190Z,0.00
2017-10-16T02:08:38.223Z,0.00
2017-10-16T02:09:38.254Z,0.00
2017-10-16T02:10:38.291Z,0.00
2017-10-16T02:11:38.319Z,0.00
2017-10-16T02:12:38.352Z,0.00
2017-10-16T02:13:38.383Z,0.00
2017-10-16T02:14:38.417Z,0.00
2017-10-16T02:15:38.448Z,0.00
2017-10-16T02:16:38.482Z,0.00
2017-10-16T02:17:38.514Z,0.00
2017-10-16T02:18:38.546Z,0.00
2017-10-16T02:19:38.578Z,0.00
2017-10-16T02:20:38.612Z,0.00
2017-10-16T02:21:38.657Z,0.00
2017-10-16T02:22:38.675Z,0.00
2017-10-16T02:23:38.707Z,0.00
2017-10-16T02:24:38.740Z,0.00
2017-10-16T02:25:38.772Z,0.00
2017-10-16T02:26:38.805Z,0.00
2017-10-16T02:27:38.839Z,0.00
2017-10-16T02:28:38.872Z,0.00
2017-10-16T02:29:38.901Z,0.00
2017-10-16T02:30:38.935Z,0.00
2017-10-16T02:31:38.972Z,0.00
2017-10-16T02:32:39.003Z,0.00
2017-10-16T02:33:39.030Z,0.00
2017-10-16T02:34:39.064Z,0.00
2017-10-16T02:35:39.097Z,0.00
2017-10-16T02:36:39.131Z,0.00
2017-10-16T02:37:39.161Z,0.00
2017-10-16T02:38:39.193Z,0.00
2017-10-16T02:39:39.226Z,0.00
2017-10-16T02:40:39.258Z,0.00
2017-10-16T02:41:39.289Z,0.00
2017-10-16T02:42:39.323Z,0.00
2017-10-16T02:43:39.357Z,0.00
2017-10-16T02:44:39.388Z,0.00
2017-10-16T02:45:39.420Z,0.00
2017-10-16T02:46:39.451Z,0.00
2017-10-16T02:47:39.485Z,0.00
2017-10-16T02:48:39.518Z,0.00
2017-10-16T02:49:39.548Z,0.00
2017-10-16T02:50:39.583Z,0.00
2017-10-16T02:51:39.614Z,0.00
2017-10-16T02:52:39.647Z,0.00
2017-10-16T02:53:39.678Z,0.00
2017-10-16T02:54:39.710Z,0.00
2017-10-16T02:55:39.742Z,0.00
2017-10-16T02:56:39.775Z,0.00
2017-10-16T02:57:39.807Z,0.00
2017-10-16T02:58:39.841Z,0.00
2017-10-16T02:59:39.873Z,0.00
2017-10-16T03:00:39.905Z,0.00
2017-10-16T03:01:39.936Z,0.00
2017-10-16T03:02:39.968Z,0.00
2017-10-16T03:03:40.005Z,0.00
2017-10-16T03:04:40.034Z,0.00
2017-10-16T03:05:40.066Z,0.00
2017-10-16T03:06:40.100Z,0.00
2017-10-16T03:07:40.135Z,0.00
2017-10-16T03:08:40.163Z,0.00
2017-10-16T03:09:40.196Z,0.00
2017-10-16T03:10:40.229Z,0.00
2017-10-16T03:11:40.259Z,0.00
2017-10-16T03:12:40.292Z,0.00
2017-10-16T03:13:40.323Z,0.00
2017-10-16T03:14:40.357Z,0.00
2017-10-16T03:15:40.388Z,0.00
2017-10-16T03:16:40.425Z,0.00
2017-10-16T03:17:40.453Z,0.00
2017-10-16T03:18:40.486Z,0.00
2017-10-16T03:19:40.527Z,0.00
2017-10-16T03:20:40.549Z,0.00
2017-10-16T03:21:40.582Z,0.00
2017-10-16T03:22:40.617Z,0.00
2017-10-16T03:23:40.649Z,0.00
2017-10-16T03:24:40.679Z,0.00
2017-10-16T03:25:40.711Z,0.00
2017-10-16T03:26:40.743Z,0.00
2017-10-16T03:27:40.781Z,0.00
2017-10-16T03:28:40.808Z,0.00
2017-10-16T03:29:40.841Z,0.00
2017-10-16T03:30:40.874Z,0.00
2017-10-16T03:31:40.906Z,0.00
2017-10-16T03:32:40.936Z,0.00
2017-10-16T03:33:40.968Z,0.00
2017-10-16T03:34:41.001Z,0.00
2017-10-16T03:35:41.033Z,0.00
2017-10-16T03:36:41.066Z,0.00
2017-10-16T03:37:41.098Z,0.00
2017-10-16T03:38:41.130Z,0.00
2017-10-16T03:39:41.163Z,0.00
2017-10-16T03:40:41.212Z,0.00
2017-10-16T03:41:41.225Z,0.00
2017-10-16T03:42:41.259Z,0.00
2017-10-16T03:43:41.291Z,0.00
2017-10-16T03:44:41.324Z,0.00
2017-10-16T03:45:41.356Z,0.00
2017-10-16T03:46:41.388Z,0.00
2017-10-16T03:47:41.424Z,0.00
2017-10-16T03:48:41.453Z,0.00
2017-10-16T03:49:41.485Z,0.00
2017-10-16T03:50:41.517Z,0.00
2017-10-16T03:51:41.549Z,0.00
2017-10-16T03:52:41.582Z,0.00
2017-10-16T03:53:41.613Z,0.00
2017-10-16T03:54:41.646Z,0.00
2017-10-16T03:55:41.679Z,0.00
2017-10-16T03:56:41.711Z,0.00
2017-10-16T03:57:41.742Z,0.00
2017-10-16T03:58:41.776Z,0.00
2017-10-16T03:59:41.808Z,0.00
2017-10-16T04:00:41.845Z,0.00
2017-10-16T04:01:41.872Z,0.00
2017-10-16T04:02:41.904Z,0.00
2017-10-16T04:03:41.938Z,0.00
2017-10-16T04:04:41.969Z,0.00
2017-10-16T04:05:42.002Z,0.00
2017-10-16T04:06:42.036Z,0.00
2017-10-16T04:07:42.066Z,0.00
2017-10-16T04:08:42.098Z,0.00
2017-10-16T04:09:42.130Z,0.00
2017-10-16T04:10:42.163Z,0.00
2017-10-16T04:11:42.195Z,0.00
2017-10-16T04:12:42.229Z,0.00
2017-10-16T04:13:42.260Z,0.00
2017-10-16T04:14:42.291Z,0.00
2017-10-16T04:15:42.324Z,0.00
2017-10-16T04:16:42.357Z,0.00
2017-10-16T04:17:42.389Z,0.00
2017-10-16T04:18:42.423Z,0.00
2017-10-16T04:19:42.453Z,0.00
2017-10-16T04:20:42.485Z,0.00
2017-10-16T04:21:42.517Z,0.00
2017-10-16T04:22:42.550Z,0.00
2017-10-16T04:23:42.581Z,0.00
2017-10-16T04:24:42.614Z,0.00
2017-10-16T04:25:42.647Z,0.00
2017-10-16T04:26:42.689Z,0.00
2017-10-16T04:27:42.711Z,0.00
2017-10-16T04:28:42.743Z,0.00
2017-10-16T04:29:42.777Z,0.00
2017-10-16T04:30:42.807Z,0.00
2017-10-16T04:31:42.840Z,0.00
2017-10-16T04:32:42.872Z,0.00
2017-10-16T04:33:42.904Z,0.00
2017-10-16T04:34:42.937Z,0.00
2017-10-16T04:35:42.970Z,0.00
2017-10-16T04:36:43.001Z,0.00
2017-10-16T04:37:43.033Z,0.00
2017-10-16T04:38:43.065Z,0.00
2017-10-16T04:39:43.098Z,0.00
2017-10-16T04:40:43.135Z,0.00
2017-10-16T04:41:43.162Z,0.00
2017-10-16T04:42:43.194Z,0.00
2017-10-16T04:43:43.226Z,0.00
2017-10-16T04:44:43.259Z,0.00
2017-10-16T04:45:43.291Z,0.00
2017-10-16T04:46:43.323Z,0.00
2017-10-16T04:47:43.357Z,0.00
2017-10-16T04:48:43.395Z,0.00
2017-10-16T04:49:43.427Z,0.00
2017-10-16T04:50:43.452Z,0.00
2017-10-16T04:51:43.483Z,0.00
2017-10-16T04:52:43.516Z,0.00
2017-10-16T04:53:43.553Z,0.00
2017-10-16T04:54:43.588Z,0.00
2017-10-16T04:55:43.613Z,0.00
2017-10-16T04:56:43.646Z,0.00
2017-10-16T04:57:43.678Z,0.00
2017-10-16T04:58:43.709Z,0.00
2017-10-16T04:59:43.742Z,0.00
2017-10-16T05:00:43.774Z,0.00
2017-10-16T05:01:43.806Z,0.00
2017-10-16T05:02:43.844Z,0.00
2017-10-16T05:03:43.870Z,0.00
2017-10-16T05:04:43.903Z,0.00
2017-10-16T05:05:43.935Z,0.00
2017-10-16T05:06:43.972Z,0.00
2017-10-16T05:07:43.999Z,0.00
2017-10-16T05:08:44.032Z,0.00
2017-10-16T05:09:44.065Z,0.00
2017-10-16T05:10:44.097Z,0.00
2017-10-16T05:11:44.134Z,0.00
2017-10-16T05:12:44.160Z,0.00
2017-10-16T05:13:44.190Z,0.00
2017-10-16T05:14:44.224Z,0.00
2017-10-16T05:15:44.256Z,0.00
2017-10-16T05:16:44.288Z,0.00
2017-10-16T05:17:44.320Z,0.00
2017-10-16T05:18:44.353Z,4.00
2017-10-16T05:19:44.391Z,0.00
2017-10-16T05:20:44.416Z,4.00
2017-10-16T05:21:44.448Z,4.00
2017-10-16T05:22:44.481Z,4.00
2017-10-16T05:23:44.514Z,4.00
2017-10-16T05:24:44.547Z,4.00
2017-10-16T05:25:44.578Z,8.00
2017-10-16T05:26:44.609Z,8.00
2017-10-16T05:27:44.645Z,12.00
2017-10-16T05:28:44.675Z,12.00
2017-10-16T05:29:44.706Z,16.00
2017-10-16T05:30:44.739Z,20.00
2017-10-16T05:31:44.771Z,20.00
2017-10-16T05:32:44.804Z,28.00
2017-10-16T05:33:44.834Z,32.00
2017-10-16T05:34:44.868Z,40.00
2017-10-16T05:35:44.900Z,48.00
2017-10-16T05:36:44.932Z,56.00
2017-10-16T05:37:44.963Z,64.00
2017-10-16T05:38:44.997Z,72.00
2017-10-16T05:39:45.029Z,88.00
2017-10-16T05:40:45.060Z,104.00
2017-10-16T05:41:45.093Z,112.00
2017-10-16T05:42:45.124Z,132.00
2017-10-16T05:43:45.157Z,148.00
2017-10-16T05:44:45.191Z,168.00
2017-10-16T05:45:45.221Z,188.00
2017-10-16T05:46:45.253Z,212.00
2017-10-16T05:47:45.285Z,232.00
2017-10-16T05:48:45.426Z,260.00
2017-10-16T05:49:45.351Z,284.00
2017-10-16T05:50:45.382Z,312.00
2017-10-16T05:51:45.414Z,340.00
2017-10-16T05:52:45.446Z,372.00
2017-10-16T05:53:45.478Z,404.00
2017-10-16T05:54:45.511Z,436.00
2017-10-16T05:55:45.543Z,472.00
2017-10-16T05:56:45.575Z,508.00
2017-10-16T05:57:45.605Z,540.00
2017-10-16T05:58:45.643Z,580.00
2017-10-16T05:59:45.671Z,620.00
2017-10-16T06:00:45.702Z,660.00
2017-10-16T06:01:45.735Z,700.00
2017-10-16T06:02:45.768Z,740.00
2017-10-16T06:03:45.800Z,784.00
2017-10-16T06:04:45.833Z,824.00
2017-10-16T06:05:45.863Z,868.00
2017-10-16T06:06:45.896Z,912.00
2017-10-16T06:07:45.928Z,956.00
2017-10-16T06:08:45.962Z,1000.00
2017-10-16T06:09:45.993Z,1048.00
2017-10-16T06:10:46.025Z,1092.00
2017-10-16T06:11:46.058Z,1140.00
2017-10-16T06:12:46.090Z,1188.00
2017-10-16T06:13:46.122Z,1236.00
2017-10-16T06:14:46.154Z,1288.00
2017-10-16T06:15:46.186Z,1348.00
2017-10-16T06:16:46.219Z,1400.00
2017-10-16T06:17:46.252Z,1452.00
2017-10-16T06:18:46.284Z,1516.00
2017-10-16T06:19:46.316Z,1568.00
2017-10-16T06:20:46.353Z,1620.00
2017-10-16T06:21:46.380Z,1668.00
2017-10-16T06:22:46.414Z,1720.00
2017-10-16T06:23:46.446Z,1776.00
2017-10-16T06:24:46.479Z,1824.00
2017-10-16T06:25:46.514Z,1884.00
2017-10-16T06:26:46.543Z,1940.00
2017-10-16T06:27:46.585Z,1992.00
2017-10-16T06:28:46.608Z,2052.00
2017-10-16T06:29:46.639Z,2108.00
2017-10-16T06:30:46.672Z,2168.00
2017-10-16T06:31:46.705Z,2224.00
2017-10-16T06:32:46.738Z,2288.00
2017-10-16T06:33:46.768Z,2356.00
2017-10-16T06:34:46.803Z,2420.00
2017-10-16T06:35:46.835Z,2484.00
2017-10-16T06:36:46.868Z,2552.00
2017-10-16T06:37:46.905Z,2624.00
2017-10-16T06:38:46.934Z,2692.00
2017-10-16T06:39:46.967Z,2764.00
2017-10-16T06:40:46.999Z,2828.00
2017-10-16T06:41:47.030Z,2900.00
2017-10-16T06:42:47.063Z,2968.00
2017-10-16T06:43:47.097Z,3040.00
2017-10-16T06:44:47.130Z,3100.00
2017-10-16T06:45:47.162Z,3168.00
2017-10-16T06:46:47.195Z,3236.00
2017-10-16T06:47:47.227Z,3300.00
2017-10-16T06:48:47.260Z,3368.00
2017-10-16T06:49:47.293Z,3436.00
2017-10-16T06:50:47.327Z,3504.00
2017-10-16T06:51:47.358Z,3572.00
2017-10-16T06:52:47.392Z,3640.00
2017-10-16T06:53:47.424Z,3704.00
2017-10-16T06:54:47.456Z,3780.00
2017-10-16T06:55:47.491Z,3852.00
2017-10-16T06:56:47.525Z,3928.00
2017-10-16T06:57:47.557Z,3996.00
2017-10-16T06:58:47.591Z,4080.00
2017-10-16T06:59:47.625Z,4160.00
2017-10-16T07:00:47.658Z,4224.00
2017-10-16T07:01:47.691Z,4300.00
2017-10-16T07:02:47.724Z,4376.00
2017-10-16T07:03:47.758Z,4452.00
2017-10-16T07:04:47.793Z,4524.00
2017-10-16T07:05:47.824Z,4616.00
2017-10-16T07:06:47.866Z,4696.00
2017-10-16T07:07:47.892Z,4768.00
2017-10-16T07:08:47.927Z,4848.00
2017-10-16T07:09:47.960Z,4940.00
2017-10-16T07:10:47.997Z,5012.00
2017-10-16T07:11:48.030Z,5088.00
2017-10-16T07:12:48.062Z,5160.00
2017-10-16T07:13:48.096Z,5240.00
2017-10-16T07:14:48.130Z,5312.00
2017-10-16T07:15:48.164Z,5388.00
2017-10-16T07:16:48.200Z,5456.00
2017-10-16T07:17:48.232Z,5540.00
2017-10-16T07:18:48.267Z,5604.00
2017-10-16T07:19:48.302Z,5680.00
2017-10-16T07:20:48.337Z,5740.00
2017-10-16T07:21:48.370Z,5820.00
2017-10-16T07:22:48.405Z,5892.00
2017-10-16T07:23:48.441Z,5960.00
2017-10-16T07:24:48.476Z,6044.00
2017-10-16T07:25:48.511Z,6120.00
2017-10-16T07:26:48.544Z,6196.00
2017-10-16T07:27:48.581Z,6288.00
2017-10-16T07:28:48.616Z,6380.00
2017-10-16T07:29:48.651Z,6452.00
2017-10-16T07:30:48.689Z,6532.00
2017-10-16T07:31:48.721Z,6608.00
2017-10-16T07:32:48.757Z,6696.00
2017-10-16T07:33:48.794Z,6780.00
2017-10-16T07:34:48.828Z,6864.00
2017-10-16T07:35:48.865Z,6960.00
2017-10-16T07:36:48.900Z,7048.00
2017-10-16T07:37:48.936Z,7116.00
2017-10-16T07:38:48.972Z,7204.00
2017-10-16T07:39:49.008Z,7284.00
2017-10-16T07:40:49.045Z,7376.00
2017-10-16T07:41:49.080Z,7532.00
2017-10-16T07:42:49.117Z,7872.00
2017-10-16T07:43:49.153Z,8244.00
2017-10-16T07:44:49.190Z,8492.00
2017-10-16T07:45:49.225Z,8708.00
2017-10-16T07:46:49.262Z,9188.00
2017-10-16T07:47:49.301Z,9868.00
2017-10-16T07:48:49.337Z,10516.00
2017-10-16T07:49:49.375Z,10992.00
2017-10-16T07:50:49.412Z,11348.00
2017-10-16T07:51:49.451Z,11604.00
2017-10-16T07:52:49.487Z,11872.00
2017-10-16T07:53:49.525Z,12104.00
2017-10-16T07:54:49.563Z,12332.00
2017-10-16T07:55:49.601Z,12556.00
2017-10-16T07:56:49.639Z,12784.00
2017-10-16T07:57:49.678Z,13016.00
2017-10-16T07:58:49.716Z,13252.00
2017-10-16T07:59:49.755Z,13508.00
2017-10-16T08:00:49.795Z,13792.00
2017-10-16T08:01:49.833Z,14748.00
2017-10-16T08:02:49.872Z,21024.00
2017-10-16T08:03:49.912Z,27488.00
2017-10-16T08:04:49.953Z,28480.00
2017-10-16T08:05:49.990Z,28704.00
2017-10-16T08:06:50.031Z,29472.00
2017-10-16T08:07:50.071Z,30656.00
2017-10-16T08:08:50.111Z,32160.00
2017-10-16T08:09:50.150Z,32224.00
2017-10-16T08:10:50.192Z,31328.00
2017-10-16T08:11:50.232Z,31456.00
2017-10-16T08:12:50.273Z,32928.00
2017-10-16T08:13:50.314Z,34240.00
2017-10-16T08:14:50.354Z,34592.00
2017-10-16T08:15:50.394Z,34880.00
2017-10-16T08:16:50.438Z,36032.00
2017-10-16T08:17:50.478Z,37216.00
2017-10-16T08:18:50.519Z,37440.00
2017-10-16T08:19:50.561Z,37472.00
2017-10-16T08:20:50.603Z,38304.00
2017-10-16T08:21:50.644Z,38784.00
2017-10-16T08:22:50.685Z,39360.00
2017-10-16T08:23:50.730Z,39648.00
2017-10-16T08:24:50.774Z,40256.00
2017-10-16T08:25:50.813Z,40576.00
2017-10-16T08:26:50.857Z,39360.00
2017-10-16T08:27:50.906Z,39328.00
2017-10-16T08:28:50.945Z,40160.00
2017-10-16T08:29:50.986Z,40800.00
2017-10-16T08:30:51.025Z,40960.00
2017-10-16T08:31:51.069Z,41824.00
2017-10-16T08:32:51.113Z,42592.00
2017-10-16T08:33:51.154Z,42048.00
2017-10-16T08:34:51.199Z,41856.00
2017-10-16T08:35:51.249Z,42240.00
2017-10-16T08:36:51.292Z,43104.00
2017-10-16T08:37:51.335Z,43712.00
2017-10-16T08:38:51.373Z,44864.00
2017-10-16T08:39:51.417Z,45088.00
2017-10-16T08:40:51.461Z,46880.00
2017-10-16T08:41:51.505Z,45888.00
2017-10-16T08:42:51.550Z,45280.00
2017-10-16T08:43:51.595Z,47712.00
2017-10-16T08:44:51.639Z,50208.00
2017-10-16T08:45:51.684Z,50048.00
2017-10-16T08:46:51.728Z,49952.00
2017-10-16T08:47:51.774Z,50528.00
2017-10-16T08:48:51.820Z,50784.00
2017-10-16T08:49:51.865Z,51168.00
2017-10-16T08:50:51.910Z,52576.00
2017-10-16T08:51:51.956Z,53056.00
2017-10-16T08:52:52.002Z,52992.00
2017-10-16T08:53:52.047Z,53120.00
2017-10-16T08:54:52.095Z,53408.00
2017-10-16T08:55:52.139Z,54176.00
2017-10-16T08:56:52.188Z,52704.00
2017-10-16T08:57:52.239Z,51424.00
2017-10-16T08:58:52.281Z,57408.00
2017-10-16T08:59:52.328Z,63968.00
2017-10-16T09:00:52.375Z,65376.00
2017-10-16T09:01:52.422Z,62752.00
2017-10-16T09:02:52.468Z,58944.00
2017-10-16T09:03:52.518Z,58304.00
2017-10-16T09:04:52.566Z,58496.00
2017-10-16T09:05:52.635Z,58624.00
2017-10-16T09:06:52.662Z,59808.00
2017-10-16T09:07:52.712Z,59360.00
2017-10-16T09:08:52.759Z,60512.00
2017-10-16T09:09:52.808Z,60032.00
2017-10-16T09:10:52.858Z,59616.00
2017-10-16T09:11:52.907Z,62528.00
2017-10-16T09:12:52.955Z,63968.00
2017-10-16T09:13:53.008Z,62368.00
2017-10-16T09:14:53.054Z,61280.00
2017-10-16T09:15:53.105Z,62528.00
2017-10-16T09:16:53.153Z,62464.00
2017-10-16T09:17:53.204Z,62656.00
2017-10-16T09:18:53.254Z,62880.00
2017-10-16T09:19:53.303Z,61408.00
2017-10-16T09:20:53.354Z,59136.00
2017-10-16T09:21:53.404Z,61760.00
2017-10-16T09:22:53.456Z,65568.00
2017-10-16T09:23:53.507Z,66848.00
2017-10-16T09:24:53.555Z,63296.00
2017-10-16T09:25:53.607Z,59264.00
2017-10-16T09:26:53.656Z,63296.00
2017-10-16T09:27:53.707Z,66208.00
2017-10-16T09:28:53.759Z,65632.00
2017-10-16T09:29:53.809Z,64864.00
2017-10-16T09:30:53.862Z,65248.00
2017-10-16T09:31:53.912Z,65376.00
2017-10-16T09:32:53.969Z,65472.00
2017-10-16T09:33:54.015Z,67328.00
2017-10-16T09:34:54.068Z,68928.00
2017-10-16T09:35:54.119Z,67488.00
2017-10-16T09:36:54.170Z,67488.00
2017-10-16T09:37:54.222Z,68512.00
2017-10-16T09:38:54.275Z,67136.00
2017-10-16T09:39:54.328Z,68608.00
2017-10-16T09:40:54.380Z,70016.00
2017-10-16T09:41:54.432Z,69600.00
2017-10-16T09:42:54.483Z,70784.00
2017-10-16T09:43:54.539Z,70176.00
2017-10-16T09:44:54.589Z,69760.00
2017-10-16T09:45:54.641Z,71424.00
2017-10-16T09:46:54.694Z,72096.00
2017-10-16T09:47:54.752Z,72640.00
2017-10-16T09:48:54.801Z,72320.00
2017-10-16T09:49:54.853Z,71520.00
2017-10-16T09:50:54.936Z,71808.00
2017-10-16T09:51:54.959Z,73024.00
2017-10-16T09:52:55.013Z,73056.00
2017-10-16T09:53:55.065Z,71936.00
2017-10-16T09:54:55.119Z,70560.00
2017-10-16T09:55:55.173Z,72928.00
2017-10-16T09:56:55.226Z,70016.00
2017-10-16T09:57:55.278Z,63040.00
2017-10-16T09:58:55.333Z,54208.00
2017-10-16T09:59:55.386Z,46816.00
2017-10-16T10:00:55.441Z,41952.00
2017-10-16T10:01:55.495Z,38848.00
2017-10-16T10:02:55.548Z,38112.00
2017-10-16T10:03:55.601Z,37856.00
2017-10-16T10:04:55.662Z,37856.00
2017-10-16T10:05:55.708Z,37792.00
2017-10-16T10:06:55.762Z,37472.00
2017-10-16T10:07:55.818Z,37248.00
2017-10-16T10:08:55.871Z,37216.00
2017-10-16T10:09:55.925Z,37280.00
2017-10-16T10:10:55.980Z,37280.00
2017-10-16T10:11:56.039Z,37280.00
2017-10-16T10:12:56.090Z,37248.00
2017-10-16T10:13:56.142Z,37344.00
2017-10-16T10:14:56.198Z,37440.00
2017-10-16T10:15:56.252Z,37408.00
2017-10-16T10:16:56.307Z,37248.00
2017-10-16T10:17:56.362Z,36800.00
2017-10-16T10:18:56.415Z,36480.00
2017-10-16T10:19:56.471Z,36544.00
2017-10-16T10:20:56.526Z,36608.00
2017-10-16T10:21:56.579Z,36704.00
2017-10-16T10:22:56.634Z,36832.00
2017-10-16T10:23:56.696Z,36960.00
2017-10-16T10:24:56.745Z,37120.00
2017-10-16T10:25:56.799Z,37376.00
2017-10-16T10:26:56.855Z,37728.00
2017-10-16T10:27:56.910Z,38176.00
2017-10-16T10:28:56.966Z,38976.00
2017-10-16T10:29:57.020Z,40384.00
2017-10-16T10:30:57.075Z,42496.00
2017-10-16T10:31:57.131Z,58496.00
2017-10-16T10:32:57.185Z,80320.00
2017-10-16T10:33:57.240Z,83008.00
2017-10-16T10:34:57.295Z,84000.00
2017-10-16T10:35:57.350Z,86880.00
2017-10-16T10:36:57.407Z,86368.00
2017-10-16T10:37:57.461Z,87520.00
2017-10-16T10:38:57.517Z,87456.00
2017-10-16T10:39:57.571Z,87296.00
2017-10-16T10:40:57.628Z,88928.00
2017-10-16T10:41:57.682Z,92672.00
2017-10-16T10:42:57.737Z,95680.00
2017-10-16T10:43:57.794Z,94624.00
2017-10-16T10:44:57.859Z,93888.00
2017-10-16T10:45:57.903Z,93760.00
2017-10-16T10:46:57.961Z,94208.00
2017-10-16T10:47:58.016Z,92864.00
2017-10-16T10:48:58.071Z,93408.00
2017-10-16T10:49:58.126Z,93472.00
2017-10-16T10:50:58.182Z,89504.00
2017-10-16T10:51:58.239Z,90272.00
2017-10-16T10:52:58.295Z,92096.00
2017-10-16T10:53:58.349Z,94304.00
2017-10-16T10:54:58.405Z,97632.00
2017-10-16T10:55:58.461Z,92512.00
2017-10-16T10:56:58.523Z,92896.00
2017-10-16T10:57:58.574Z,91776.00
2017-10-16T10:58:58.629Z,91552.00
2017-10-16T10:59:58.688Z,89792.00
2017-10-16T11:00:58.746Z,89856.00
2017-10-16T11:01:58.796Z,92000.00
2017-10-16T11:02:58.853Z,94176.00
2017-10-16T11:03:58.910Z,91456.00
2017-10-16T11:04:58.965Z,94432.00
2017-10-16T11:05:59.024Z,93856.00
2017-10-16T11:06:59.084Z,92928.00
2017-10-16T11:07:59.134Z,94336.00
2017-10-16T11:08:59.190Z,94208.00
2017-10-16T11:09:59.246Z,95776.00
2017-10-16T11:10:59.302Z,91776.00
2017-10-16T11:11:59.357Z,89024.00
2017-10-16T11:12:59.415Z,92352.00
2017-10-16T11:13:59.473Z,91264.00
2017-10-16T11:14:59.528Z,88960.00
2017-10-16T11:15:59.585Z,88832.00
2017-10-16T11:16:59.649Z,89184.00
2017-10-16T11:17:59.698Z,87936.00
2017-10-16T11:18:59.754Z,88032.00
2017-10-16T11:19:59.811Z,84320.00
2017-10-16T11:20:59.867Z,81312.00
2017-10-16T11:21:59.922Z,83872.00
2017-10-16T11:22:59.979Z,81856.00
2017-10-16T11:24:00.037Z,82816.00
2017-10-16T11:25:00.095Z,83392.00
2017-10-16T11:26:00.163Z,82720.00
2017-10-16T11:27:00.207Z,82848.00
2017-10-16T11:28:00.264Z,80576.00
2017-10-16T11:29:00.321Z,76608.00
2017-10-16T11:30:00.378Z,73920.00
2017-10-16T11:31:00.434Z,73184.00
2017-10-16T11:32:00.492Z,71936.00
2017-10-16T11:33:00.550Z,71072.00
2017-10-16T11:34:00.605Z,70240.00
2017-10-16T11:35:00.663Z,70880.00
2017-10-16T11:36:00.719Z,68480.00
2017-10-16T11:37:00.778Z,64640.00
2017-10-16T11:38:00.834Z,63264.00
2017-10-16T11:39:00.891Z,65600.00
2017-10-16T11:40:00.949Z,66976.00
2017-10-16T11:41:01.006Z,66624.00
2017-10-16T11:42:01.063Z,71456.00
2017-10-16T11:43:01.120Z,77696.00
2017-10-16T11:44:01.177Z,81280.00
2017-10-16T11:45:01.238Z,78656.00
2017-10-16T11:46:01.292Z,79776.00
2017-10-16T11:47:01.350Z,81568.00
2017-10-16T11:48:01.406Z,81344.00
2017-10-16T11:49:01.464Z,82432.00
2017-10-16T11:50:01.520Z,84064.00
2017-10-16T11:51:01.580Z,86080.00
2017-10-16T11:52:01.635Z,83200.00
2017-10-16T11:53:01.694Z,80704.00
2017-10-16T11:54:01.750Z,87808.00
2017-10-16T11:55:01.809Z,88704.00
2017-10-16T11:56:01.866Z,85472.00
2017-10-16T11:57:01.923Z,84832.00
2017-10-16T11:58:01.979Z,87296.00
2017-10-16T11:59:02.038Z,89216.00
2017-10-16T12:00:02.094Z,89792.00
2017-10-16T12:01:02.151Z,91072.00
2017-10-16T12:02:02.207Z,96672.00
2017-10-16T12:03:02.265Z,96736.00
2017-10-16T12:04:02.324Z,92672.00
2017-10-16T12:05:02.382Z,89984.00
2017-10-16T12:06:02.438Z,88320.00
2017-10-16T12:07:02.498Z,87968.00
2017-10-16T12:08:02.552Z,87264.00
2017-10-16T12:09:02.610Z,88768.00
2017-10-16T12:10:02.666Z,93952.00
2017-10-16T12:11:02.731Z,94784.00
2017-10-16T12:12:02.782Z,95232.00
2017-10-16T12:13:02.839Z,93184.00
2017-10-16T12:14:02.896Z,88736.00
2017-10-16T12:15:02.955Z,89056.00
2017-10-16T12:16:03.011Z,92288.00
2017-10-16T12:17:03.070Z,90464.00
2017-10-16T12:18:03.126Z,87552.00
2017-10-16T12:19:03.184Z,90464.00
2017-10-16T12:20:03.242Z,93664.00
2017-10-16T12:21:03.299Z,92928.00
2017-10-16T12:22:03.358Z,92736.00
2017-10-16T12:23:03.414Z,93344.00
2017-10-16T12:24:03.472Z,89216.00
2017-10-16T12:25:03.531Z,85472.00
2017-10-16T12:26:03.587Z,86816.00
2017-10-16T12:27:03.646Z,92448.00
2017-10-16T12:28:03.707Z,93824.00
2017-10-16T12:29:03.762Z,93984.00